createdAt,value
2022-10-18T00:02:14.582Z,18.50
2022-10-18T00:05:00.976Z,18.50
2022-10-18T00:07:46.723Z,18.50
2022-10-18T00:10:32.917Z,18.40
2022-10-18T00:13:20.451Z,18.50
2022-10-18T00:16:12.288Z,18.40
2022-10-18T00:18:58.802Z,18.30
2022-10-18T00:24:36.264Z,18.30
2022-10-18T00:27:22.060Z,18.30
2022-10-18T00:30:09.497Z,18.40
2022-10-18T00:32:55.529Z,18.30
2022-10-18T00:35:42.018Z,18.30
2022-10-18T00:38:28.188Z,18.30
2022-10-18T00:41:17.693Z,18.30
2022-10-18T00:44:12.708Z,18.20
2022-10-18T00:47:05.529Z,18.20
2022-10-18T00:49:56.274Z,18.10
2022-10-18T00:52:51.909Z,18.10
2022-10-18T00:55:37.946Z,18.10
2022-10-18T00:58:23.949Z,18.20
2022-10-18T01:01:10.126Z,18.20
2022-10-18T01:03:57.959Z,18.20
2022-10-18T01:06:58.823Z,18.10
2022-10-18T01:10:15.308Z,18.10
2022-10-18T01:13:23.460Z,18.20
2022-10-18T01:16:32.881Z,18.10
2022-10-18T01:19:47.581Z,18.10
2022-10-18T01:23:04.067Z,18.10
2022-10-18T01:26:19.632Z,18.00
2022-10-18T01:29:33.320Z,18.00
2022-10-18T01:32:24.890Z,18.00
2022-10-18T01:35:35.066Z,18.00
2022-10-18T01:38:22.704Z,18.00
2022-10-18T01:41:14.786Z,17.90
2022-10-18T01:44:05.213Z,17.90
2022-10-18T01:46:54.726Z,18.00
2022-10-18T01:49:40.618Z,18.00
2022-10-18T01:52:27.620Z,18.00
2022-10-18T01:55:13.298Z,17.90
2022-10-18T01:58:20.986Z,17.90
2022-10-18T02:01:36.406Z,17.90
2022-10-18T02:04:46.755Z,17.90
2022-10-18T02:07:39.994Z,18.00
2022-10-18T02:10:34.060Z,17.90
2022-10-18T02:13:22.917Z,17.80
2022-10-18T02:16:28.619Z,17.80
2022-10-18T02:19:33.115Z,17.80
2022-10-18T02:22:20.313Z,17.80
2022-10-18T02:25:11.991Z,17.80
2022-10-18T02:27:59.010Z,17.80
2022-10-18T02:31:06.550Z,17.80
2022-10-18T02:34:16.862Z,17.80
2022-10-18T02:37:03.209Z,17.80
2022-10-18T02:39:50.956Z,17.80
2022-10-18T02:42:39.903Z,17.80
2022-10-18T02:45:26.865Z,17.70
2022-10-18T02:48:12.703Z,17.80
2022-10-18T02:50:59.309Z,17.70
2022-10-18T02:53:45.165Z,17.80
2022-10-18T02:56:31.165Z,17.70
2022-10-18T02:59:16.951Z,17.70
2022-10-18T03:02:03.264Z,17.70
2022-10-18T03:04:49.952Z,17.70
2022-10-18T03:07:35.806Z,17.70
2022-10-18T03:10:21.452Z,17.70
2022-10-18T03:13:07.138Z,17.60
2022-10-18T03:15:53.018Z,17.60
2022-10-18T03:18:39.289Z,17.60
2022-10-18T03:21:25.101Z,17.50
2022-10-18T03:24:11.012Z,17.50
2022-10-18T03:26:56.836Z,17.40
2022-10-18T03:29:42.365Z,17.50
2022-10-18T03:32:28.237Z,17.40
2022-10-18T03:35:14.291Z,17.40
2022-10-18T03:38:00.121Z,17.30
2022-10-18T03:40:46.086Z,17.30
2022-10-18T03:43:32.276Z,17.30
2022-10-18T03:46:18.759Z,17.30
2022-10-18T03:49:05.121Z,17.30
2022-10-18T03:51:51.246Z,17.30
2022-10-18T03:54:37.038Z,17.20
2022-10-18T03:57:23.205Z,17.20
2022-10-18T04:00:09.753Z,17.20
2022-10-18T04:02:58.819Z,17.20
2022-10-18T04:05:46.624Z,17.10
2022-10-18T04:08:32.616Z,17.10
2022-10-18T04:11:18.823Z,17.10
2022-10-18T04:14:05.240Z,17.10
2022-10-18T04:16:51.028Z,16.90
2022-10-18T04:19:37.230Z,16.90
2022-10-18T04:22:23.672Z,16.80
2022-10-18T04:25:10.440Z,16.90
2022-10-18T04:27:56.641Z,17.00
2022-10-18T04:30:42.938Z,16.90
2022-10-18T04:33:28.621Z,17.00
2022-10-18T04:36:14.651Z,16.90
2022-10-18T04:39:00.437Z,16.90
2022-10-18T04:41:47.136Z,16.80
2022-10-18T04:44:32.757Z,16.80
2022-10-18T04:47:19.078Z,16.70
2022-10-18T04:50:06.185Z,16.60
2022-10-18T04:52:53.640Z,16.60
2022-10-18T04:55:39.830Z,16.60
2022-10-18T04:58:27.110Z,16.60
2022-10-18T05:01:13.819Z,16.50
2022-10-18T05:03:59.364Z,16.60
2022-10-18T05:06:44.956Z,16.60
2022-10-18T05:09:30.786Z,16.60
2022-10-18T05:12:17.729Z,16.60
2022-10-18T05:15:03.970Z,16.50
2022-10-18T05:17:50.045Z,16.50
2022-10-18T05:20:36.126Z,16.50
2022-10-18T05:23:22.945Z,16.50
2022-10-18T05:26:09.804Z,16.50
2022-10-18T05:28:55.624Z,16.50
2022-10-18T05:31:41.540Z,16.40
2022-10-18T05:34:31.808Z,16.30
2022-10-18T05:37:18.675Z,16.30
2022-10-18T05:40:05.078Z,16.30
2022-10-18T05:42:54.095Z,16.30
2022-10-18T05:45:39.677Z,16.20
2022-10-18T05:48:26.570Z,16.10
2022-10-18T05:51:12.278Z,16.10
2022-10-18T05:53:58.864Z,16.20
2022-10-18T05:56:45.258Z,16.30
2022-10-18T05:59:31.654Z,16.20
2022-10-18T06:02:17.770Z,16.10
2022-10-18T06:05:03.782Z,16.00
2022-10-18T06:07:50.419Z,15.90
2022-10-18T06:10:38.871Z,15.80
2022-10-18T06:13:25.243Z,15.90
2022-10-18T06:16:12.561Z,16.10
2022-10-18T06:18:59.925Z,16.20
2022-10-18T06:21:45.764Z,16.00
2022-10-18T06:24:32.270Z,16.10
2022-10-18T06:27:18.773Z,16.00
2022-10-18T06:30:05.657Z,16.00
2022-10-18T06:32:52.221Z,16.10
2022-10-18T06:35:38.177Z,16.30
2022-10-18T06:38:24.201Z,16.20
2022-10-18T06:41:10.393Z,16.10
2022-10-18T06:43:58.660Z,16.10
2022-10-18T06:46:46.187Z,16.30
2022-10-18T06:49:32.542Z,16.20
2022-10-18T06:52:18.731Z,16.20
2022-10-18T06:55:08.990Z,16.20
2022-10-18T06:57:55.321Z,16.30
2022-10-18T07:00:41.261Z,16.10
2022-10-18T07:03:27.304Z,16.10
2022-10-18T07:06:15.913Z,16.20
2022-10-18T07:09:03.207Z,16.20
2022-10-18T07:11:49.949Z,16.10
2022-10-18T07:14:35.701Z,16.10
2022-10-18T07:17:21.274Z,16.30
2022-10-18T07:20:07.738Z,16.30
2022-10-18T07:22:57.155Z,16.30
2022-10-18T07:25:43.080Z,16.30
2022-10-18T07:28:29.994Z,16.50
2022-10-18T07:31:15.775Z,16.40
2022-10-18T07:34:07.139Z,16.30
2022-10-18T07:36:53.108Z,16.40
2022-10-18T07:39:38.988Z,16.30
2022-10-18T07:42:24.962Z,16.50
2022-10-18T07:45:12.556Z,16.50
2022-10-18T07:47:59.034Z,16.70
2022-10-18T07:50:45.852Z,16.50
2022-10-18T07:53:31.625Z,16.60
2022-10-18T07:56:21.837Z,16.50
2022-10-18T07:59:11.184Z,16.60
2022-10-18T08:01:57.100Z,16.60
2022-10-18T08:04:43.737Z,16.60
2022-10-18T08:07:29.691Z,16.60
2022-10-18T08:10:16.435Z,16.50
2022-10-18T08:13:02.606Z,16.60
2022-10-18T08:15:48.775Z,16.60
2022-10-18T08:18:36.610Z,16.70
2022-10-18T08:21:22.557Z,16.70
2022-10-18T08:24:08.797Z,16.80
2022-10-18T08:26:54.934Z,16.70
2022-10-18T08:29:41.133Z,16.70
2022-10-18T08:32:28.480Z,16.90
2022-10-18T08:35:14.326Z,17.10
2022-10-18T08:38:00.317Z,17.00
2022-10-18T08:40:46.294Z,17.10
2022-10-18T08:43:46.211Z,17.10
2022-10-18T08:46:38.296Z,17.10
2022-10-18T08:49:31.756Z,17.30
2022-10-18T08:52:35.844Z,17.40
2022-10-18T08:55:30.056Z,17.50
2022-10-18T08:58:18.502Z,17.60
2022-10-18T09:01:08.490Z,17.70
2022-10-18T09:04:16.854Z,17.90
2022-10-18T09:07:05.831Z,17.90
2022-10-18T09:10:05.183Z,17.90
2022-10-18T09:12:50.953Z,18.00
2022-10-18T09:15:45.154Z,18.20
2022-10-18T09:19:04.160Z,18.20
2022-10-18T09:21:53.964Z,18.30
2022-10-18T09:25:20.268Z,18.40
2022-10-18T09:28:23.365Z,18.50
2022-10-18T09:31:46.576Z,18.60
2022-10-18T09:34:40.404Z,18.70
2022-10-18T09:37:32.846Z,18.80
2022-10-18T09:40:26.938Z,18.90
2022-10-18T09:43:19.334Z,18.90
2022-10-18T09:46:06.270Z,18.90
2022-10-18T09:49:02.003Z,19.00
2022-10-18T09:51:49.717Z,19.10
2022-10-18T09:54:42.282Z,19.10
2022-10-18T09:57:57.477Z,19.30
2022-10-18T10:00:52.780Z,19.40
2022-10-18T10:03:39.063Z,19.40
2022-10-18T10:06:28.124Z,19.50
2022-10-18T10:09:15.989Z,19.50
2022-10-18T10:12:03.135Z,19.60
2022-10-18T10:14:49.038Z,19.60
2022-10-18T10:17:35.155Z,19.70
2022-10-18T10:20:25.899Z,19.80
2022-10-18T10:23:37.968Z,19.90
2022-10-18T10:26:25.089Z,20.00
2022-10-18T10:29:48.403Z,20.00
2022-10-18T10:32:47.602Z,20.10
2022-10-18T10:35:53.197Z,20.20
2022-10-18T10:38:40.092Z,20.30
2022-10-18T10:41:26.521Z,20.40
2022-10-18T10:44:21.095Z,20.50
2022-10-18T10:47:08.107Z,20.50
2022-10-18T10:49:57.091Z,20.60
2022-10-18T10:52:48.082Z,20.80
2022-10-18T10:55:36.565Z,20.90
2022-10-18T10:58:24.010Z,20.90
2022-10-18T11:01:29.256Z,20.90
2022-10-18T11:04:30.159Z,21.10
2022-10-18T11:07:25.300Z,21.10
2022-10-18T11:10:11.204Z,21.10
2022-10-18T11:13:05.152Z,21.20
2022-10-18T11:15:57.281Z,21.30
2022-10-18T11:18:47.214Z,21.40
2022-10-18T11:21:33.856Z,21.50
2022-10-18T11:24:20.324Z,21.60
2022-10-18T11:27:14.681Z,21.60
2022-10-18T11:30:23.900Z,21.70
2022-10-18T11:34:07.171Z,21.80
2022-10-18T11:37:25.932Z,21.90
2022-10-18T11:40:27.295Z,21.90
2022-10-18T11:43:14.047Z,22.00
2022-10-18T11:46:21.030Z,22.10
2022-10-18T11:49:28.664Z,22.30
2022-10-18T11:52:32.856Z,22.40
2022-10-18T11:55:21.778Z,22.50
2022-10-18T11:58:34.357Z,22.40
2022-10-18T12:01:39.289Z,22.60
2022-10-18T12:04:30.921Z,22.60
2022-10-18T12:07:23.393Z,22.70
2022-10-18T12:10:26.325Z,22.90
2022-10-18T12:13:35.327Z,22.90
2022-10-18T12:16:45.418Z,23.10
2022-10-18T12:19:34.564Z,23.10
2022-10-18T12:22:35.223Z,23.10
2022-10-18T12:25:21.050Z,23.20
2022-10-18T12:28:37.135Z,23.20
2022-10-18T12:31:53.074Z,23.40
2022-10-18T12:34:45.233Z,23.50
2022-10-18T12:38:04.805Z,23.60
2022-10-18T12:40:53.874Z,23.70
2022-10-18T12:43:40.103Z,23.80
2022-10-18T12:46:44.688Z,23.90
2022-10-18T12:49:40.151Z,24.00
2022-10-18T12:52:32.004Z,24.10
2022-10-18T12:55:21.703Z,24.10
2022-10-18T12:58:24.633Z,24.40
2022-10-18T13:01:10.933Z,24.60
2022-10-18T13:03:57.010Z,24.80
2022-10-18T13:07:05.446Z,24.80
2022-10-18T13:10:10.161Z,24.80
2022-10-18T13:13:45.655Z,25.20
2022-10-18T13:16:56.764Z,25.00
2022-10-18T13:20:20.523Z,25.20
2022-10-18T13:23:25.193Z,25.30
2022-10-18T13:26:23.679Z,25.40
2022-10-18T13:29:43.602Z,25.30
2022-10-18T13:32:44.894Z,25.50
2022-10-18T13:35:57.288Z,27.10
2022-10-18T13:38:47.212Z,28.30
2022-10-18T13:41:35.452Z,29.50
2022-10-18T13:44:38.334Z,30.90
2022-10-18T13:47:37.343Z,31.50
2022-10-18T13:50:34.246Z,31.80
2022-10-18T13:53:47.037Z,31.80
2022-10-18T13:56:39.037Z,32.50
2022-10-18T13:59:54.716Z,32.20
2022-10-18T14:03:51.880Z,32.10
2022-10-18T14:06:40.932Z,32.90
2022-10-18T14:09:43.537Z,32.30
2022-10-18T14:12:37.933Z,31.20
2022-10-18T14:15:33.816Z,31.10
2022-10-18T14:18:31.818Z,31.20
2022-10-18T14:21:31.122Z,32.00
2022-10-18T14:24:28.959Z,32.00
2022-10-18T14:27:19.142Z,31.20
2022-10-18T14:30:16.518Z,32.20
2022-10-18T14:33:02.851Z,32.20
2022-10-18T14:36:12.897Z,32.20
2022-10-18T14:39:04.363Z,32.10
2022-10-18T14:41:55.097Z,32.00
2022-10-18T14:44:41.197Z,32.10
2022-10-18T14:47:31.048Z,31.70
2022-10-18T14:50:30.659Z,31.30
2022-10-18T14:53:21.996Z,30.60
2022-10-18T14:56:15.922Z,30.30
2022-10-18T14:59:04.935Z,31.00
2022-10-18T15:01:56.683Z,31.40
2022-10-18T15:04:45.582Z,31.10
2022-10-18T15:07:32.742Z,31.00
2022-10-18T15:10:24.712Z,30.90
2022-10-18T15:13:13.355Z,30.70
2022-10-18T15:16:00.821Z,31.00
2022-10-18T15:19:02.875Z,30.80
2022-10-18T15:22:19.734Z,30.50
2022-10-18T15:25:15.896Z,30.20
2022-10-18T15:28:02.883Z,29.40
2022-10-18T15:30:48.677Z,29.30
2022-10-18T15:33:34.906Z,29.10
2022-10-18T15:36:29.518Z,28.80
2022-10-18T15:39:23.365Z,28.80
2022-10-18T15:42:38.493Z,29.20
2022-10-18T15:45:24.671Z,29.20
2022-10-18T15:48:12.978Z,29.00
2022-10-18T15:51:07.427Z,28.30
2022-10-18T15:53:55.010Z,27.60
2022-10-18T15:56:41.183Z,27.20
2022-10-18T15:59:31.167Z,26.80
2022-10-18T16:02:17.568Z,26.50
2022-10-18T16:05:04.174Z,26.40
2022-10-18T16:07:53.258Z,26.20
2022-10-18T16:10:39.211Z,25.90
2022-10-18T16:13:26.817Z,25.80
2022-10-18T16:16:22.355Z,25.60
2022-10-18T16:19:09.234Z,25.50
2022-10-18T16:21:55.232Z,25.30
2022-10-18T16:24:41.433Z,25.10
2022-10-18T16:27:26.961Z,25.00
2022-10-18T16:30:17.156Z,24.80
2022-10-18T16:33:02.934Z,24.70
2022-10-18T16:35:49.157Z,24.60
2022-10-18T16:38:36.852Z,24.50
2022-10-18T16:41:23.562Z,24.30
2022-10-18T16:44:09.445Z,24.20
2022-10-18T16:46:56.255Z,24.20
2022-10-18T16:49:43.901Z,24.10
2022-10-18T16:52:29.485Z,24.00
2022-10-18T16:55:21.280Z,23.90
2022-10-18T16:58:11.689Z,23.80
2022-10-18T17:00:58.582Z,23.70
2022-10-18T17:03:44.266Z,23.60
2022-10-18T17:06:32.841Z,23.50
2022-10-18T17:09:19.352Z,23.40
2022-10-18T17:12:05.863Z,23.40
2022-10-18T17:14:51.742Z,23.30
2022-10-18T17:17:38.451Z,23.20
2022-10-18T17:20:26.445Z,23.20
2022-10-18T17:23:12.589Z,23.00
2022-10-18T17:26:06.725Z,23.00
2022-10-18T17:28:57.845Z,22.90
2022-10-18T17:31:43.766Z,22.80
2022-10-18T17:34:29.586Z,22.80
2022-10-18T17:37:16.436Z,22.80
2022-10-18T17:40:02.997Z,22.70
2022-10-18T17:42:48.625Z,22.50
2022-10-18T17:45:35.001Z,22.50
2022-10-18T17:48:21.906Z,22.40
2022-10-18T17:51:10.039Z,22.40
2022-10-18T17:53:56.610Z,22.30
2022-10-18T17:56:42.655Z,22.20
2022-10-18T17:59:28.927Z,22.20
2022-10-18T18:02:14.534Z,22.30
2022-10-18T18:05:08.072Z,22.20
2022-10-18T18:07:54.668Z,22.20
2022-10-18T18:10:41.753Z,22.10
2022-10-18T18:13:28.053Z,22.00
2022-10-18T18:16:22.605Z,21.90
2022-10-18T18:19:10.131Z,21.90
2022-10-18T18:21:58.722Z,21.80
2022-10-18T18:24:44.989Z,21.80
2022-10-18T18:27:31.042Z,21.80
2022-10-18T18:30:18.055Z,21.70
2022-10-18T18:33:04.601Z,21.70
2022-10-18T18:35:58.545Z,21.60
2022-10-18T18:38:45.390Z,21.60
2022-10-18T18:41:31.745Z,21.60
2022-10-18T18:44:19.718Z,21.50
2022-10-18T18:47:12.284Z,21.50
2022-10-18T18:50:00.312Z,21.40
2022-10-18T18:52:46.669Z,21.40
2022-10-18T18:55:33.170Z,21.30
2022-10-18T18:58:19.352Z,21.40
2022-10-18T19:01:14.965Z,21.40
2022-10-18T19:04:01.389Z,21.30
2022-10-18T19:06:47.526Z,21.20
2022-10-18T19:09:33.533Z,21.20
2022-10-18T19:12:21.393Z,21.20
2022-10-18T19:15:08.026Z,21.10
2022-10-18T19:17:56.257Z,21.10
2022-10-18T19:20:43.071Z,21.10
2022-10-18T19:23:29.427Z,21.00
2022-10-18T19:26:25.745Z,20.90
2022-10-18T19:29:23.307Z,21.00
2022-10-18T19:32:15.042Z,20.90
2022-10-18T19:35:01.654Z,20.90
2022-10-18T19:37:47.913Z,20.90
2022-10-18T19:40:34.017Z,20.80
2022-10-18T19:43:20.780Z,20.80
2022-10-18T19:46:07.395Z,20.70
2022-10-18T19:48:54.368Z,20.80
2022-10-18T19:51:43.605Z,20.70
2022-10-18T19:54:29.771Z,20.80
2022-10-18T19:57:16.224Z,20.70
2022-10-18T20:00:05.453Z,20.60
2022-10-18T20:02:58.052Z,20.60
2022-10-18T20:05:43.636Z,20.60
2022-10-18T20:08:33.221Z,20.50
2022-10-18T20:11:22.349Z,20.50
2022-10-18T20:14:10.091Z,20.50
2022-10-18T20:16:56.078Z,20.50
2022-10-18T20:19:42.437Z,20.40
2022-10-18T20:22:31.903Z,20.40
2022-10-18T20:25:18.663Z,20.40
2022-10-18T20:28:05.377Z,20.40
2022-10-18T20:31:15.376Z,20.40
2022-10-18T20:34:05.174Z,20.40
2022-10-18T20:36:54.604Z,20.40
2022-10-18T20:39:40.659Z,20.30
2022-10-18T20:42:26.611Z,20.30
2022-10-18T20:45:15.720Z,20.20
2022-10-18T20:48:01.969Z,20.20
2022-10-18T20:50:47.583Z,20.30
2022-10-18T20:53:35.216Z,20.20
2022-10-18T20:56:24.020Z,20.20
2022-10-18T20:59:11.495Z,20.10
2022-10-18T21:01:57.548Z,20.10
2022-10-18T21:04:43.937Z,20.10
2022-10-18T21:07:33.668Z,20.00
2022-10-18T21:10:20.585Z,20.00
2022-10-18T21:13:06.793Z,19.90
2022-10-18T21:15:59.959Z,19.90
2022-10-18T21:18:45.841Z,20.00
2022-10-18T21:21:32.543Z,19.90
2022-10-18T21:24:20.167Z,20.00
2022-10-18T21:27:06.605Z,20.00
2022-10-18T21:29:53.068Z,19.90
2022-10-18T21:32:38.799Z,19.90
2022-10-18T21:35:25.566Z,19.70
2022-10-18T21:38:11.385Z,19.70
2022-10-18T21:40:57.690Z,19.70
2022-10-18T21:43:46.536Z,19.60
2022-10-18T21:46:33.140Z,19.60
2022-10-18T21:49:18.797Z,19.50
2022-10-18T21:52:05.468Z,19.50
2022-10-18T21:54:51.489Z,19.50
2022-10-18T21:57:37.587Z,19.50
2022-10-18T22:00:23.894Z,19.50
2022-10-18T22:03:13.098Z,19.50
2022-10-18T22:06:07.595Z,19.40
2022-10-18T22:08:56.652Z,19.40
2022-10-18T22:11:46.242Z,19.40
2022-10-18T22:14:32.268Z,19.40
2022-10-18T22:17:18.007Z,19.40
2022-10-18T22:20:03.723Z,19.40
2022-10-18T22:22:54.232Z,19.40
2022-10-18T22:25:40.236Z,19.40
2022-10-18T22:28:26.153Z,19.40
2022-10-18T22:31:21.996Z,19.30
2022-10-18T22:34:13.637Z,19.30
2022-10-18T22:36:59.916Z,19.20
2022-10-18T22:39:45.572Z,19.30
2022-10-18T22:42:31.955Z,19.30
2022-10-18T22:45:18.447Z,19.20
2022-10-18T22:48:05.330Z,19.20
2022-10-18T22:50:50.789Z,19.20
2022-10-18T22:53:38.326Z,19.20
2022-10-18T22:56:25.054Z,19.20
2022-10-18T22:59:11.324Z,19.10
2022-10-18T23:01:57.092Z,19.20
2022-10-18T23:04:42.954Z,19.10
2022-10-18T23:07:28.913Z,19.10
2022-10-18T23:10:14.993Z,19.00
2022-10-18T23:13:01.151Z,19.00
2022-10-18T23:15:46.867Z,19.00
2022-10-18T23:18:33.237Z,19.00
2022-10-18T23:21:20.920Z,19.00
2022-10-18T23:24:07.419Z,19.00
2022-10-18T23:26:53.146Z,19.00
2022-10-18T23:29:41.629Z,19.00
2022-10-18T23:32:28.578Z,19.00
2022-10-18T23:35:15.426Z,19.00
2022-10-18T23:38:01.224Z,19.00
2022-10-18T23:40:47.544Z,18.90
2022-10-18T23:43:34.274Z,18.90
2022-10-18T23:46:21.597Z,18.90
2022-10-18T23:49:07.502Z,18.90
2022-10-18T23:51:53.414Z,18.90
2022-10-18T23:54:39.406Z,18.90
2022-10-18T23:57:25.459Z,18.80
